sensor_id;sensor_type;location;lat;lon;timestamp;P1;durP1;ratioP1;P2;durP2;ratioP2
15116;SDS011;7659;51.038;13.786;2023-09-19T00:01:19;12.20;;;7.50;;
15116;SDS011;7659;51.038;13.786;2023-09-19T00:03:45;10.52;;;7.38;;
15116;SDS011;7659;51.038;13.786;2023-09-19T00:06:11;10.20;;;7.90;;
15116;SDS011;7659;51.038;13.786;2023-09-19T00:08:41;11.95;;;7.95;;
15116;SDS011;7659;51.038;13.786;2023-09-19T00:11:09;7.72;;;6.93;;
15116;SDS011;7659;51.038;13.786;2023-09-19T00:13:36;11.85;;;8.13;;
15116;SDS011;7659;51.038;13.786;2023-09-19T00:16:01;10.07;;;8.40;;
15116;SDS011;7659;51.038;13.786;2023-09-19T00:18:33;10.57;;;7.78;;
15116;SDS011;7659;51.038;13.786;2023-09-19T00:21:00;11.00;;;9.02;;
15116;SDS011;7659;51.038;13.786;2023-09-19T00:23:25;11.77;;;8.82;;
15116;SDS011;7659;51.038;13.786;2023-09-19T00:25:51;11.82;;;8.43;;
15116;SDS011;7659;51.038;13.786;2023-09-19T00:28:18;10.23;;;8.57;;
15116;SDS011;7659;51.038;13.786;2023-09-19T00:30:45;12.15;;;9.27;;
15116;SDS011;7659;51.038;13.786;2023-09-19T00:33:15;14.02;;;9.23;;
15116;SDS011;7659;51.038;13.786;2023-09-19T00:35:48;11.07;;;9.57;;
15116;SDS011;7659;51.038;13.786;2023-09-19T00:38:14;9.88;;;8.85;;
15116;SDS011;7659;51.038;13.786;2023-09-19T00:40:44;12.25;;;8.70;;
15116;SDS011;7659;51.038;13.786;2023-09-19T00:43:10;11.25;;;8.65;;
15116;SDS011;7659;51.038;13.786;2023-09-19T00:45:35;11.40;;;9.48;;
15116;SDS011;7659;51.038;13.786;2023-09-19T00:48:01;14.13;;;9.45;;
15116;SDS011;7659;51.038;13.786;2023-09-19T00:50:29;12.27;;;8.85;;
15116;SDS011;7659;51.038;13.786;2023-09-19T00:52:57;14.20;;;9.00;;
15116;SDS011;7659;51.038;13.786;2023-09-19T00:55:23;12.32;;;9.40;;
15116;SDS011;7659;51.038;13.786;2023-09-19T00:57:49;12.23;;;9.82;;
15116;SDS011;7659;51.038;13.786;2023-09-19T01:00:15;13.00;;;9.50;;
15116;SDS011;7659;51.038;13.786;2023-09-19T01:02:44;13.75;;;10.02;;
15116;SDS011;7659;51.038;13.786;2023-09-19T01:05:12;12.18;;;9.40;;
15116;SDS011;7659;51.038;13.786;2023-09-19T01:07:41;17.23;;;9.50;;
15116;SDS011;7659;51.038;13.786;2023-09-19T01:10:11;14.48;;;9.27;;
15116;SDS011;7659;51.038;13.786;2023-09-19T01:17:49;11.70;;;9.07;;
15116;SDS011;7659;51.038;13.786;2023-09-19T01:28:25;11.80;;;7.83;;
15116;SDS011;7659;51.038;13.786;2023-09-19T01:30:56;10.10;;;8.15;;
15116;SDS011;7659;51.038;13.786;2023-09-19T01:33:23;9.63;;;7.82;;
15116;SDS011;7659;51.038;13.786;2023-09-19T01:35:48;11.35;;;8.43;;
15116;SDS011;7659;51.038;13.786;2023-09-19T01:38:15;13.07;;;8.43;;
15116;SDS011;7659;51.038;13.786;2023-09-19T01:40:42;14.20;;;8.73;;
15116;SDS011;7659;51.038;13.786;2023-09-19T01:43:20;12.00;;;8.10;;
15116;SDS011;7659;51.038;13.786;2023-09-19T01:46:04;12.60;;;7.88;;
15116;SDS011;7659;51.038;13.786;2023-09-19T01:51:12;13.98;;;7.80;;
15116;SDS011;7659;51.038;13.786;2023-09-19T01:53:44;13.23;;;8.32;;
15116;SDS011;7659;51.038;13.786;2023-09-19T01:56:16;9.23;;;7.60;;
15116;SDS011;7659;51.038;13.786;2023-09-19T01:58:46;11.20;;;8.13;;
15116;SDS011;7659;51.038;13.786;2023-09-19T02:01:12;11.23;;;8.10;;
15116;SDS011;7659;51.038;13.786;2023-09-19T02:03:39;9.18;;;8.13;;
15116;SDS011;7659;51.038;13.786;2023-09-19T02:06:05;10.05;;;8.18;;
15116;SDS011;7659;51.038;13.786;2023-09-19T02:08:36;11.63;;;7.40;;
15116;SDS011;7659;51.038;13.786;2023-09-19T02:11:02;11.85;;;7.47;;
15116;SDS011;7659;51.038;13.786;2023-09-19T02:13:27;16.58;;;8.73;;
15116;SDS011;7659;51.038;13.786;2023-09-19T02:15:53;11.27;;;7.95;;
15116;SDS011;7659;51.038;13.786;2023-09-19T02:18:19;9.55;;;8.25;;
15116;SDS011;7659;51.038;13.786;2023-09-19T02:20:45;8.52;;;7.50;;
15116;SDS011;7659;51.038;13.786;2023-09-19T02:23:11;13.55;;;7.60;;
15116;SDS011;7659;51.038;13.786;2023-09-19T02:25:38;10.95;;;7.25;;
15116;SDS011;7659;51.038;13.786;2023-09-19T02:28:04;12.88;;;7.45;;
15116;SDS011;7659;51.038;13.786;2023-09-19T02:30:33;11.25;;;7.45;;
15116;SDS011;7659;51.038;13.786;2023-09-19T02:32:58;8.20;;;7.13;;
15116;SDS011;7659;51.038;13.786;2023-09-19T02:35:27;11.05;;;7.60;;
15116;SDS011;7659;51.038;13.786;2023-09-19T02:37:53;9.55;;;7.60;;
15116;SDS011;7659;51.038;13.786;2023-09-19T02:40:20;9.48;;;7.32;;
15116;SDS011;7659;51.038;13.786;2023-09-19T02:42:54;10.48;;;7.00;;
15116;SDS011;7659;51.038;13.786;2023-09-19T02:45:22;9.85;;;7.32;;
15116;SDS011;7659;51.038;13.786;2023-09-19T02:47:49;8.88;;;7.10;;
15116;SDS011;7659;51.038;13.786;2023-09-19T02:50:15;10.25;;;7.10;;
15116;SDS011;7659;51.038;13.786;2023-09-19T02:52:42;14.38;;;7.30;;
15116;SDS011;7659;51.038;13.786;2023-09-19T02:55:11;8.75;;;6.75;;
15116;SDS011;7659;51.038;13.786;2023-09-19T02:57:38;6.85;;;6.18;;
15116;SDS011;7659;51.038;13.786;2023-09-19T03:00:08;11.02;;;7.05;;
15116;SDS011;7659;51.038;13.786;2023-09-19T03:02:37;9.20;;;7.10;;
15116;SDS011;7659;51.038;13.786;2023-09-19T03:05:07;8.27;;;5.57;;
15116;SDS011;7659;51.038;13.786;2023-09-19T03:07:34;8.93;;;6.55;;
15116;SDS011;7659;51.038;13.786;2023-09-19T03:09:59;12.18;;;7.10;;
15116;SDS011;7659;51.038;13.786;2023-09-19T03:12:25;11.18;;;6.18;;
15116;SDS011;7659;51.038;13.786;2023-09-19T03:14:51;9.05;;;3.03;;
15116;SDS011;7659;51.038;13.786;2023-09-19T03:17:17;6.55;;;3.95;;
15116;SDS011;7659;51.038;13.786;2023-09-19T03:19:45;6.15;;;4.68;;
15116;SDS011;7659;51.038;13.786;2023-09-19T03:22:11;7.90;;;5.65;;
15116;SDS011;7659;51.038;13.786;2023-09-19T03:24:37;9.30;;;5.50;;
15116;SDS011;7659;51.038;13.786;2023-09-19T03:27:04;6.90;;;5.25;;
15116;SDS011;7659;51.038;13.786;2023-09-19T03:29:30;7.40;;;5.30;;
15116;SDS011;7659;51.038;13.786;2023-09-19T03:31:56;7.32;;;5.13;;
15116;SDS011;7659;51.038;13.786;2023-09-19T03:34:21;5.85;;;3.47;;
15116;SDS011;7659;51.038;13.786;2023-09-19T03:36:47;5.82;;;4.13;;
15116;SDS011;7659;51.038;13.786;2023-09-19T03:39:13;3.00;;;2.38;;
15116;SDS011;7659;51.038;13.786;2023-09-19T03:41:40;2.83;;;1.90;;
15116;SDS011;7659;51.038;13.786;2023-09-19T03:44:06;8.52;;;2.65;;
15116;SDS011;7659;51.038;13.786;2023-09-19T03:46:32;5.47;;;1.83;;
15116;SDS011;7659;51.038;13.786;2023-09-19T03:48:58;4.25;;;2.60;;
15116;SDS011;7659;51.038;13.786;2023-09-19T03:51:24;5.38;;;2.17;;
15116;SDS011;7659;51.038;13.786;2023-09-19T03:53:49;4.80;;;2.67;;
15116;SDS011;7659;51.038;13.786;2023-09-19T03:56:15;6.38;;;2.50;;
15116;SDS011;7659;51.038;13.786;2023-09-19T03:58:41;3.65;;;2.25;;
15116;SDS011;7659;51.038;13.786;2023-09-19T04:01:06;12.95;;;7.22;;
15116;SDS011;7659;51.038;13.786;2023-09-19T04:03:32;5.93;;;2.60;;
15116;SDS011;7659;51.038;13.786;2023-09-19T04:06:12;3.60;;;1.92;;
15116;SDS011;7659;51.038;13.786;2023-09-19T04:08:37;3.00;;;1.85;;
15116;SDS011;7659;51.038;13.786;2023-09-19T04:11:03;4.22;;;2.42;;
15116;SDS011;7659;51.038;13.786;2023-09-19T04:13:29;2.75;;;1.52;;
15116;SDS011;7659;51.038;13.786;2023-09-19T04:15:55;2.42;;;1.50;;
15116;SDS011;7659;51.038;13.786;2023-09-19T04:18:20;6.05;;;1.65;;
15116;SDS011;7659;51.038;13.786;2023-09-19T04:20:48;4.88;;;1.83;;
15116;SDS011;7659;51.038;13.786;2023-09-19T04:23:14;4.70;;;1.30;;
15116;SDS011;7659;51.038;13.786;2023-09-19T04:25:40;4.80;;;1.60;;
15116;SDS011;7659;51.038;13.786;2023-09-19T04:28:06;4.15;;;1.90;;
15116;SDS011;7659;51.038;13.786;2023-09-19T04:30:31;3.58;;;1.50;;
15116;SDS011;7659;51.038;13.786;2023-09-19T04:32:57;4.25;;;1.50;;
15116;SDS011;7659;51.038;13.786;2023-09-19T04:35:22;4.82;;;1.85;;
15116;SDS011;7659;51.038;13.786;2023-09-19T04:37:48;2.42;;;1.40;;
15116;SDS011;7659;51.038;13.786;2023-09-19T04:40:13;5.82;;;1.20;;
15116;SDS011;7659;51.038;13.786;2023-09-19T04:42:43;2.92;;;1.25;;
15116;SDS011;7659;51.038;13.786;2023-09-19T04:45:09;4.60;;;1.40;;
15116;SDS011;7659;51.038;13.786;2023-09-19T04:47:36;3.35;;;1.55;;
15116;SDS011;7659;51.038;13.786;2023-09-19T04:50:03;5.40;;;1.40;;
15116;SDS011;7659;51.038;13.786;2023-09-19T04:52:30;2.45;;;1.58;;
15116;SDS011;7659;51.038;13.786;2023-09-19T04:54:56;2.70;;;1.15;;
15116;SDS011;7659;51.038;13.786;2023-09-19T04:57:21;3.30;;;1.40;;
15116;SDS011;7659;51.038;13.786;2023-09-19T04:59:47;4.65;;;1.35;;
15116;SDS011;7659;51.038;13.786;2023-09-19T05:02:12;3.10;;;1.30;;
15116;SDS011;7659;51.038;13.786;2023-09-19T05:04:38;1.77;;;1.02;;
15116;SDS011;7659;51.038;13.786;2023-09-19T05:07:04;3.90;;;1.13;;
15116;SDS011;7659;51.038;13.786;2023-09-19T05:09:29;4.15;;;1.25;;
15116;SDS011;7659;51.038;13.786;2023-09-19T05:11:55;5.13;;;1.27;;
15116;SDS011;7659;51.038;13.786;2023-09-19T05:14:22;4.43;;;1.10;;
15116;SDS011;7659;51.038;13.786;2023-09-19T05:16:47;1.75;;;1.13;;
15116;SDS011;7659;51.038;13.786;2023-09-19T05:19:13;2.45;;;1.40;;
15116;SDS011;7659;51.038;13.786;2023-09-19T05:21:38;2.70;;;1.23;;
15116;SDS011;7659;51.038;13.786;2023-09-19T05:24:04;2.22;;;1.30;;
15116;SDS011;7659;51.038;13.786;2023-09-19T05:26:31;2.35;;;1.25;;
15116;SDS011;7659;51.038;13.786;2023-09-19T05:28:57;6.85;;;1.60;;
15116;SDS011;7659;51.038;13.786;2023-09-19T05:31:22;1.67;;;1.30;;
15116;SDS011;7659;51.038;13.786;2023-09-19T05:33:49;3.15;;;1.27;;
15116;SDS011;7659;51.038;13.786;2023-09-19T05:36:15;3.72;;;1.35;;
15116;SDS011;7659;51.038;13.786;2023-09-19T05:38:42;3.65;;;1.40;;
15116;SDS011;7659;51.038;13.786;2023-09-19T05:41:08;5.32;;;1.08;;
15116;SDS011;7659;51.038;13.786;2023-09-19T05:43:35;3.65;;;1.45;;
15116;SDS011;7659;51.038;13.786;2023-09-19T05:46:03;5.22;;;1.30;;
15116;SDS011;7659;51.038;13.786;2023-09-19T05:48:28;4.22;;;1.33;;
15116;SDS011;7659;51.038;13.786;2023-09-19T05:50:54;2.60;;;1.27;;
15116;SDS011;7659;51.038;13.786;2023-09-19T05:53:19;3.28;;;1.30;;
15116;SDS011;7659;51.038;13.786;2023-09-19T05:55:45;3.50;;;1.20;;
15116;SDS011;7659;51.038;13.786;2023-09-19T05:58:11;3.58;;;1.35;;
15116;SDS011;7659;51.038;13.786;2023-09-19T06:00:39;2.08;;;1.13;;
15116;SDS011;7659;51.038;13.786;2023-09-19T06:03:06;2.83;;;1.10;;
15116;SDS011;7659;51.038;13.786;2023-09-19T06:05:32;3.90;;;1.40;;
15116;SDS011;7659;51.038;13.786;2023-09-19T06:07:57;2.63;;;1.10;;
15116;SDS011;7659;51.038;13.786;2023-09-19T06:10:26;3.75;;;1.63;;
15116;SDS011;7659;51.038;13.786;2023-09-19T06:12:53;2.33;;;1.27;;
15116;SDS011;7659;51.038;13.786;2023-09-19T06:15:21;3.75;;;1.58;;
15116;SDS011;7659;51.038;13.786;2023-09-19T06:17:53;2.80;;;1.52;;
15116;SDS011;7659;51.038;13.786;2023-09-19T06:20:22;2.05;;;1.10;;
15116;SDS011;7659;51.038;13.786;2023-09-19T06:22:48;1.90;;;1.35;;
15116;SDS011;7659;51.038;13.786;2023-09-19T06:25:14;1.63;;;1.25;;
15116;SDS011;7659;51.038;13.786;2023-09-19T06:27:47;4.88;;;1.20;;
15116;SDS011;7659;51.038;13.786;2023-09-19T06:30:13;4.28;;;1.50;;
15116;SDS011;7659;51.038;13.786;2023-09-19T06:32:42;8.57;;;1.60;;
15116;SDS011;7659;51.038;13.786;2023-09-19T06:35:09;5.63;;;1.38;;
15116;SDS011;7659;51.038;13.786;2023-09-19T06:37:36;2.05;;;1.17;;
15116;SDS011;7659;51.038;13.786;2023-09-19T06:40:05;3.80;;;1.42;;
15116;SDS011;7659;51.038;13.786;2023-09-19T06:42:31;4.32;;;1.40;;
15116;SDS011;7659;51.038;13.786;2023-09-19T06:44:56;3.42;;;1.17;;
15116;SDS011;7659;51.038;13.786;2023-09-19T06:47:22;2.33;;;1.00;;
15116;SDS011;7659;51.038;13.786;2023-09-19T06:49:47;2.47;;;1.08;;
15116;SDS011;7659;51.038;13.786;2023-09-19T06:52:13;3.60;;;1.20;;
15116;SDS011;7659;51.038;13.786;2023-09-19T06:54:39;2.10;;;1.17;;
15116;SDS011;7659;51.038;13.786;2023-09-19T06:57:05;1.33;;;1.00;;
15116;SDS011;7659;51.038;13.786;2023-09-19T06:59:31;1.30;;;0.90;;
15116;SDS011;7659;51.038;13.786;2023-09-19T07:01:57;2.97;;;1.25;;
15116;SDS011;7659;51.038;13.786;2023-09-19T07:04:24;1.58;;;1.00;;
15116;SDS011;7659;51.038;13.786;2023-09-19T07:06:50;2.00;;;0.98;;
15116;SDS011;7659;51.038;13.786;2023-09-19T07:09:15;5.03;;;1.33;;
15116;SDS011;7659;51.038;13.786;2023-09-19T07:11:41;3.53;;;1.20;;
15116;SDS011;7659;51.038;13.786;2023-09-19T07:14:08;1.67;;;0.98;;
15116;SDS011;7659;51.038;13.786;2023-09-19T07:16:36;2.65;;;1.17;;
15116;SDS011;7659;51.038;13.786;2023-09-19T07:19:02;2.92;;;1.23;;
15116;SDS011;7659;51.038;13.786;2023-09-19T07:21:28;4.00;;;1.40;;
15116;SDS011;7659;51.038;13.786;2023-09-19T07:23:54;5.35;;;1.38;;
15116;SDS011;7659;51.038;13.786;2023-09-19T07:26:19;2.40;;;1.23;;
15116;SDS011;7659;51.038;13.786;2023-09-19T07:28:45;3.45;;;1.40;;
15116;SDS011;7659;51.038;13.786;2023-09-19T07:31:10;2.17;;;1.27;;
15116;SDS011;7659;51.038;13.786;2023-09-19T07:33:36;3.22;;;1.05;;
15116;SDS011;7659;51.038;13.786;2023-09-19T07:36:01;5.53;;;1.10;;
15116;SDS011;7659;51.038;13.786;2023-09-19T07:38:27;5.03;;;1.00;;
15116;SDS011;7659;51.038;13.786;2023-09-19T07:40:53;2.03;;;0.93;;
15116;SDS011;7659;51.038;13.786;2023-09-19T07:43:18;2.47;;;0.93;;
15116;SDS011;7659;51.038;13.786;2023-09-19T07:45:44;4.30;;;1.10;;
15116;SDS011;7659;51.038;13.786;2023-09-19T07:48:09;2.30;;;1.00;;
15116;SDS011;7659;51.038;13.786;2023-09-19T07:50:39;1.67;;;0.93;;
15116;SDS011;7659;51.038;13.786;2023-09-19T07:53:05;16.67;;;1.08;;
15116;SDS011;7659;51.038;13.786;2023-09-19T07:55:31;1.77;;;0.93;;
15116;SDS011;7659;51.038;13.786;2023-09-19T07:57:59;1.88;;;1.00;;
15116;SDS011;7659;51.038;13.786;2023-09-19T08:00:24;5.75;;;1.13;;
15116;SDS011;7659;51.038;13.786;2023-09-19T08:02:50;2.88;;;0.90;;
15116;SDS011;7659;51.038;13.786;2023-09-19T08:05:17;10.02;;;1.23;;
15116;SDS011;7659;51.038;13.786;2023-09-19T08:07:44;4.20;;;0.93;;
15116;SDS011;7659;51.038;13.786;2023-09-19T08:10:14;2.33;;;0.93;;
15116;SDS011;7659;51.038;13.786;2023-09-19T08:12:41;2.95;;;1.10;;
15116;SDS011;7659;51.038;13.786;2023-09-19T08:15:17;2.70;;;1.10;;
15116;SDS011;7659;51.038;13.786;2023-09-19T08:17:43;2.30;;;0.90;;
15116;SDS011;7659;51.038;13.786;2023-09-19T08:20:09;4.20;;;1.00;;
15116;SDS011;7659;51.038;13.786;2023-09-19T08:22:42;4.13;;;0.90;;
15116;SDS011;7659;51.038;13.786;2023-09-19T08:25:08;1.38;;;0.60;;
15116;SDS011;7659;51.038;13.786;2023-09-19T08:27:34;6.47;;;1.10;;
15116;SDS011;7659;51.038;13.786;2023-09-19T08:30:01;2.05;;;0.88;;
15116;SDS011;7659;51.038;13.786;2023-09-19T08:32:28;1.77;;;0.77;;
15116;SDS011;7659;51.038;13.786;2023-09-19T08:34:54;4.35;;;1.00;;
15116;SDS011;7659;51.038;13.786;2023-09-19T08:37:19;1.60;;;0.80;;
15116;SDS011;7659;51.038;13.786;2023-09-19T08:39:45;2.50;;;0.90;;
15116;SDS011;7659;51.038;13.786;2023-09-19T08:42:10;2.03;;;0.70;;
15116;SDS011;7659;51.038;13.786;2023-09-19T08:44:38;5.03;;;0.80;;
15116;SDS011;7659;51.038;13.786;2023-09-19T08:47:10;2.38;;;0.70;;
15116;SDS011;7659;51.038;13.786;2023-09-19T08:49:59;2.22;;;0.90;;
15116;SDS011;7659;51.038;13.786;2023-09-19T08:52:27;3.03;;;0.68;;
15116;SDS011;7659;51.038;13.786;2023-09-19T08:54:53;3.30;;;1.10;;
15116;SDS011;7659;51.038;13.786;2023-09-19T08:57:22;4.43;;;1.23;;
15116;SDS011;7659;51.038;13.786;2023-09-19T08:59:48;2.72;;;1.20;;
15116;SDS011;7659;51.038;13.786;2023-09-19T09:02:15;3.45;;;0.77;;
15116;SDS011;7659;51.038;13.786;2023-09-19T09:04:41;3.25;;;1.30;;
15116;SDS011;7659;51.038;13.786;2023-09-19T09:07:10;4.75;;;1.00;;
15116;SDS011;7659;51.038;13.786;2023-09-19T09:09:35;3.97;;;1.10;;
15116;SDS011;7659;51.038;13.786;2023-09-19T09:12:02;1.85;;;0.80;;
15116;SDS011;7659;51.038;13.786;2023-09-19T09:14:27;5.25;;;0.90;;
15116;SDS011;7659;51.038;13.786;2023-09-19T09:16:55;2.10;;;0.98;;
15116;SDS011;7659;51.038;13.786;2023-09-19T09:19:24;2.70;;;0.80;;
15116;SDS011;7659;51.038;13.786;2023-09-19T09:21:50;1.63;;;0.90;;
15116;SDS011;7659;51.038;13.786;2023-09-19T09:24:26;3.75;;;1.00;;
15116;SDS011;7659;51.038;13.786;2023-09-19T09:26:51;2.13;;;0.88;;
15116;SDS011;7659;51.038;13.786;2023-09-19T09:29:29;5.88;;;1.08;;
15116;SDS011;7659;51.038;13.786;2023-09-19T09:32:16;3.00;;;1.60;;
15116;SDS011;7659;51.038;13.786;2023-09-19T09:34:43;3.13;;;1.10;;
15116;SDS011;7659;51.038;13.786;2023-09-19T09:37:12;2.33;;;0.90;;
15116;SDS011;7659;51.038;13.786;2023-09-19T09:39:40;4.30;;;0.90;;
15116;SDS011;7659;51.038;13.786;2023-09-19T09:42:05;3.45;;;0.90;;
15116;SDS011;7659;51.038;13.786;2023-09-19T09:44:32;3.30;;;1.02;;
15116;SDS011;7659;51.038;13.786;2023-09-19T09:46:58;5.10;;;1.13;;
15116;SDS011;7659;51.038;13.786;2023-09-19T09:49:43;10.38;;;1.15;;
15116;SDS011;7659;51.038;13.786;2023-09-19T09:52:19;5.57;;;1.17;;
15116;SDS011;7659;51.038;13.786;2023-09-19T09:55:02;2.83;;;0.98;;
15116;SDS011;7659;51.038;13.786;2023-09-19T09:57:30;3.88;;;1.00;;
15116;SDS011;7659;51.038;13.786;2023-09-19T09:59:56;5.43;;;0.95;;
15116;SDS011;7659;51.038;13.786;2023-09-19T10:02:57;7.57;;;0.90;;
15116;SDS011;7659;51.038;13.786;2023-09-19T10:05:22;3.58;;;0.90;;
15116;SDS011;7659;51.038;13.786;2023-09-19T10:08:11;3.53;;;0.88;;
15116;SDS011;7659;51.038;13.786;2023-09-19T10:10:44;1.45;;;0.70;;
15116;SDS011;7659;51.038;13.786;2023-09-19T10:13:21;3.15;;;0.85;;
15116;SDS011;7659;51.038;13.786;2023-09-19T10:15:51;3.15;;;1.00;;
15116;SDS011;7659;51.038;13.786;2023-09-19T10:18:24;3.13;;;0.77;;
15116;SDS011;7659;51.038;13.786;2023-09-19T10:20:50;4.72;;;1.08;;
15116;SDS011;7659;51.038;13.786;2023-09-19T10:23:20;2.50;;;0.77;;
15116;SDS011;7659;51.038;13.786;2023-09-19T10:25:49;6.18;;;1.02;;
15116;SDS011;7659;51.038;13.786;2023-09-19T10:28:16;3.83;;;1.02;;
15116;SDS011;7659;51.038;13.786;2023-09-19T10:30:43;6.28;;;0.85;;
15116;SDS011;7659;51.038;13.786;2023-09-19T10:33:13;8.13;;;1.30;;
15116;SDS011;7659;51.038;13.786;2023-09-19T10:35:39;1.50;;;0.80;;
15116;SDS011;7659;51.038;13.786;2023-09-19T10:38:11;2.08;;;0.73;;
15116;SDS011;7659;51.038;13.786;2023-09-19T10:40:38;5.13;;;0.95;;
15116;SDS011;7659;51.038;13.786;2023-09-19T10:43:12;3.28;;;1.20;;
15116;SDS011;7659;51.038;13.786;2023-09-19T10:45:37;2.47;;;1.10;;
15116;SDS011;7659;51.038;13.786;2023-09-19T10:48:05;3.22;;;0.80;;
15116;SDS011;7659;51.038;13.786;2023-09-19T10:50:33;2.40;;;1.08;;
15116;SDS011;7659;51.038;13.786;2023-09-19T10:53:02;2.83;;;1.10;;
15116;SDS011;7659;51.038;13.786;2023-09-19T10:55:30;2.40;;;0.90;;
15116;SDS011;7659;51.038;13.786;2023-09-19T10:57:56;4.38;;;1.60;;
15116;SDS011;7659;51.038;13.786;2023-09-19T11:00:55;4.47;;;2.05;;
15116;SDS011;7659;51.038;13.786;2023-09-19T11:03:21;5.13;;;1.60;;
15116;SDS011;7659;51.038;13.786;2023-09-19T11:06:01;2.72;;;0.95;;
15116;SDS011;7659;51.038;13.786;2023-09-19T11:08:45;6.72;;;0.93;;
15116;SDS011;7659;51.038;13.786;2023-09-19T11:11:58;3.72;;;0.90;;
15116;SDS011;7659;51.038;13.786;2023-09-19T11:14:50;6.25;;;1.40;;
15116;SDS011;7659;51.038;13.786;2023-09-19T11:22:18;4.95;;;1.23;;
15116;SDS011;7659;51.038;13.786;2023-09-19T11:24:44;3.75;;;1.10;;
15116;SDS011;7659;51.038;13.786;2023-09-19T11:27:11;3.70;;;1.27;;
15116;SDS011;7659;51.038;13.786;2023-09-19T11:29:39;3.70;;;1.15;;
15116;SDS011;7659;51.038;13.786;2023-09-19T11:32:05;3.60;;;1.42;;
15116;SDS011;7659;51.038;13.786;2023-09-19T11:34:38;3.00;;;1.00;;
15116;SDS011;7659;51.038;13.786;2023-09-19T11:39:30;4.15;;;1.20;;
15116;SDS011;7659;51.038;13.786;2023-09-19T11:41:55;6.20;;;1.38;;
15116;SDS011;7659;51.038;13.786;2023-09-19T11:44:31;3.78;;;1.10;;
15116;SDS011;7659;51.038;13.786;2023-09-19T11:46:59;2.90;;;1.27;;
15116;SDS011;7659;51.038;13.786;2023-09-19T11:49:31;1.95;;;1.27;;
15116;SDS011;7659;51.038;13.786;2023-09-19T11:52:01;2.10;;;1.10;;
15116;SDS011;7659;51.038;13.786;2023-09-19T11:54:27;8.40;;;1.52;;
15116;SDS011;7659;51.038;13.786;2023-09-19T11:56:57;2.65;;;1.23;;
15116;SDS011;7659;51.038;13.786;2023-09-19T11:59:27;5.53;;;1.45;;
15116;SDS011;7659;51.038;13.786;2023-09-19T12:02:06;3.90;;;1.52;;
15116;SDS011;7659;51.038;13.786;2023-09-19T12:04:37;2.90;;;1.48;;
15116;SDS011;7659;51.038;13.786;2023-09-19T12:09:37;2.88;;;1.52;;
15116;SDS011;7659;51.038;13.786;2023-09-19T12:12:02;3.03;;;1.35;;
15116;SDS011;7659;51.038;13.786;2023-09-19T12:14:28;2.13;;;1.20;;
15116;SDS011;7659;51.038;13.786;2023-09-19T12:16:57;1.50;;;1.00;;
15116;SDS011;7659;51.038;13.786;2023-09-19T12:19:24;9.15;;;1.75;;
15116;SDS011;7659;51.038;13.786;2023-09-19T12:21:59;7.65;;;1.65;;
15116;SDS011;7659;51.038;13.786;2023-09-19T12:24:30;5.10;;;1.17;;
15116;SDS011;7659;51.038;13.786;2023-09-19T12:27:03;5.00;;;1.17;;
15116;SDS011;7659;51.038;13.786;2023-09-19T12:29:30;2.20;;;1.13;;
15116;SDS011;7659;51.038;13.786;2023-09-19T12:31:59;3.15;;;1.40;;
15116;SDS011;7659;51.038;13.786;2023-09-19T12:34:31;3.83;;;1.10;;
15116;SDS011;7659;51.038;13.786;2023-09-19T12:37:13;6.68;;;1.20;;
15116;SDS011;7659;51.038;13.786;2023-09-19T12:39:53;3.30;;;0.98;;
15116;SDS011;7659;51.038;13.786;2023-09-19T12:42:21;6.20;;;1.40;;
15116;SDS011;7659;51.038;13.786;2023-09-19T12:44:48;3.80;;;1.05;;
15116;SDS011;7659;51.038;13.786;2023-09-19T12:47:15;2.28;;;1.15;;
15116;SDS011;7659;51.038;13.786;2023-09-19T12:52:34;3.30;;;1.20;;
15116;SDS011;7659;51.038;13.786;2023-09-19T12:55:00;10.55;;;1.08;;
15116;SDS011;7659;51.038;13.786;2023-09-19T12:57:30;3.83;;;0.93;;
15116;SDS011;7659;51.038;13.786;2023-09-19T12:59:57;3.80;;;1.05;;
15116;SDS011;7659;51.038;13.786;2023-09-19T13:02:23;8.02;;;1.30;;
15116;SDS011;7659;51.038;13.786;2023-09-19T13:04:54;4.10;;;1.27;;
15116;SDS011;7659;51.038;13.786;2023-09-19T13:07:43;6.40;;;0.88;;
15116;SDS011;7659;51.038;13.786;2023-09-19T13:12:35;2.22;;;0.90;;
15116;SDS011;7659;51.038;13.786;2023-09-19T13:15:11;10.88;;;1.20;;
15116;SDS011;7659;51.038;13.786;2023-09-19T13:17:46;5.88;;;1.08;;
15116;SDS011;7659;51.038;13.786;2023-09-19T13:20:22;5.28;;;1.05;;
15116;SDS011;7659;51.038;13.786;2023-09-19T13:22:55;2.40;;;0.90;;
15116;SDS011;7659;51.038;13.786;2023-09-19T13:25:25;7.68;;;1.70;;
15116;SDS011;7659;51.038;13.786;2023-09-19T13:27:52;3.65;;;1.35;;
15116;SDS011;7659;51.038;13.786;2023-09-19T13:30:19;2.90;;;0.90;;
15116;SDS011;7659;51.038;13.786;2023-09-19T13:32:45;5.18;;;1.10;;
15116;SDS011;7659;51.038;13.786;2023-09-19T13:35:15;5.35;;;1.10;;
15116;SDS011;7659;51.038;13.786;2023-09-19T13:37:41;5.05;;;1.10;;
15116;SDS011;7659;51.038;13.786;2023-09-19T13:40:11;4.75;;;1.13;;
15116;SDS011;7659;51.038;13.786;2023-09-19T13:42:37;3.55;;;1.10;;
15116;SDS011;7659;51.038;13.786;2023-09-19T13:45:03;9.48;;;1.23;;
15116;SDS011;7659;51.038;13.786;2023-09-19T13:47:30;7.57;;;1.30;;
15116;SDS011;7659;51.038;13.786;2023-09-19T13:49:55;3.13;;;1.50;;
15116;SDS011;7659;51.038;13.786;2023-09-19T13:52:21;4.55;;;1.27;;
15116;SDS011;7659;51.038;13.786;2023-09-19T13:54:48;10.55;;;1.30;;
15116;SDS011;7659;51.038;13.786;2023-09-19T13:57:14;3.28;;;1.27;;
15116;SDS011;7659;51.038;13.786;2023-09-19T13:59:39;4.18;;;1.02;;
15116;SDS011;7659;51.038;13.786;2023-09-19T14:02:05;2.15;;;1.10;;
15116;SDS011;7659;51.038;13.786;2023-09-19T14:04:35;2.05;;;1.10;;
15116;SDS011;7659;51.038;13.786;2023-09-19T14:07:01;2.78;;;1.20;;
15116;SDS011;7659;51.038;13.786;2023-09-19T14:09:27;2.22;;;1.25;;
15116;SDS011;7659;51.038;13.786;2023-09-19T14:11:52;2.22;;;0.90;;
15116;SDS011;7659;51.038;13.786;2023-09-19T14:14:21;3.63;;;1.30;;
15116;SDS011;7659;51.038;13.786;2023-09-19T14:16:49;2.17;;;1.10;;
15116;SDS011;7659;51.038;13.786;2023-09-19T14:19:15;1.90;;;1.10;;
15116;SDS011;7659;51.038;13.786;2023-09-19T14:21:41;4.50;;;1.30;;
15116;SDS011;7659;51.038;13.786;2023-09-19T14:24:07;2.70;;;1.40;;
15116;SDS011;7659;51.038;13.786;2023-09-19T14:26:35;2.25;;;1.42;;
15116;SDS011;7659;51.038;13.786;2023-09-19T14:29:01;2.40;;;1.27;;
15116;SDS011;7659;51.038;13.786;2023-09-19T14:31:26;4.50;;;1.20;;
15116;SDS011;7659;51.038;13.786;2023-09-19T14:33:53;1.55;;;1.10;;
15116;SDS011;7659;51.038;13.786;2023-09-19T14:36:19;5.72;;;1.38;;
15116;SDS011;7659;51.038;13.786;2023-09-19T14:38:45;5.60;;;1.55;;
15116;SDS011;7659;51.038;13.786;2023-09-19T14:41:11;1.70;;;1.35;;
15116;SDS011;7659;51.038;13.786;2023-09-19T14:43:36;2.88;;;1.30;;
15116;SDS011;7659;51.038;13.786;2023-09-19T14:46:05;1.45;;;1.35;;
15116;SDS011;7659;51.038;13.786;2023-09-19T14:48:32;1.58;;;1.17;;
15116;SDS011;7659;51.038;13.786;2023-09-19T14:51:16;3.95;;;1.40;;
15116;SDS011;7659;51.038;13.786;2023-09-19T14:53:44;2.10;;;1.20;;
15116;SDS011;7659;51.038;13.786;2023-09-19T14:56:10;5.07;;;1.38;;
15116;SDS011;7659;51.038;13.786;2023-09-19T14:58:36;1.83;;;1.05;;
15116;SDS011;7659;51.038;13.786;2023-09-19T15:01:08;1.85;;;1.20;;
15116;SDS011;7659;51.038;13.786;2023-09-19T15:03:35;3.17;;;1.50;;
15116;SDS011;7659;51.038;13.786;2023-09-19T15:06:08;9.48;;;1.48;;
15116;SDS011;7659;51.038;13.786;2023-09-19T15:08:36;12.55;;;1.55;;
15116;SDS011;7659;51.038;13.786;2023-09-19T15:11:08;4.65;;;1.58;;
15116;SDS011;7659;51.038;13.786;2023-09-19T15:13:34;1.63;;;1.40;;
15116;SDS011;7659;51.038;13.786;2023-09-19T15:16:06;1.63;;;1.25;;
15116;SDS011;7659;51.038;13.786;2023-09-19T15:18:34;4.68;;;1.30;;
15116;SDS011;7659;51.038;13.786;2023-09-19T15:21:06;3.72;;;1.60;;
15116;SDS011;7659;51.038;13.786;2023-09-19T15:23:32;3.70;;;1.30;;